Home

PKWA Terminal Aerodrome Forecast (TAF)small logo


TAF provided by NWS Guam
2015/05/28 18:59
TAF PKWA 281741Z 2818/2918 04012KT P6SM VCSH FEW020 SCT050

      



Site Map | Contact Us | Copyright © 2007 Atmospheric Technology Services Company. All rights reserved.